Time;durP1;ratioP1;P1;durP2;ratioP2;P2;SDS_P1;SDS_P2;PMS_P1;PMS_P2;Temp;Humidity;BMP_temperature;BMP_pressure;BME280_temperature;BME280_humidity;BME280_pressure;Samples;Min_cycle;Max_cycle;Signal;HPM_P1;HPM_P2
2023/10/13 00:02:40;;;;;;;8.73;3.20;;;20.20;99.90;;;;;;6093786;22;45211;-65
2023/10/13 00:05:20;;;;;;;7.32;3.05;;;20.20;99.90;;;;;;6075429;22;45160;-66
2023/10/13 00:07:47;;;;;;;6.93;3.08;;;20.20;99.90;;;;;;6082499;22;45275;-66
2023/10/13 00:10:36;;;;;;;12.07;3.22;;;20.20;99.90;;;;;;6057647;22;45808;-65
2023/10/13 00:16:09;;;;;;;7.20;3.30;;;20.20;99.90;;;;;;6066530;22;45149;-65
2023/10/13 00:18:41;;;;;;;8.27;3.58;;;20.20;99.90;;;;;;6109105;22;45331;-65
2023/10/13 00:21:13;;;;;;;10.27;3.50;;;20.20;99.90;;;;;;6081102;22;46248;-66
2023/10/13 00:27:04;;;;;;;7.07;3.22;;;20.20;99.90;;;;;;6058160;22;45329;-65
2023/10/13 00:30:15;;;;;;;6.03;2.53;;;20.20;99.90;;;;;;6152801;22;45168;-65
2023/10/13 00:32:42;;;;;;;8.65;3.05;;;20.20;99.90;;;;;;6080091;22;46019;-65
2023/10/13 00:38:12;;;;;;;6.45;2.67;;;20.20;99.90;;;;;;6068349;22;45383;-66
2023/10/13 00:40:52;;;;;;;4.55;2.63;;;20.20;99.90;;;;;;6066524;22;45449;-65
2023/10/13 00:44:03;;;;;;;7.03;2.65;;;20.30;99.90;;;;;;6086606;22;47681;-65
2023/10/13 00:46:34;;;;;;;5.53;2.03;;;20.30;99.90;;;;;;6072267;22;45128;-65
2023/10/13 00:49:15;;;;;;;5.22;3.17;;;20.30;99.90;;;;;;6071627;22;45327;-65
2023/10/13 00:52:10;;;;;;;8.02;2.80;;;20.30;99.90;;;;;;6067329;22;45252;-65
2023/10/13 00:54:37;;;;;;;6.82;3.30;;;20.40;99.90;;;;;;6064176;22;45838;-65
2023/10/13 00:57:27;;;;;;;6.50;2.92;;;20.40;99.90;;;;;;6072501;22;45334;-65
2023/10/13 01:00:25;;;;;;;4.10;2.72;;;20.40;99.90;;;;;;6102953;22;45242;-65
2023/10/13 01:03:25;;;;;;;3.75;2.50;;;20.40;99.90;;;;;;6095751;22;45149;-65
2023/10/13 01:06:20;;;;;;;4.57;2.70;;;20.40;99.90;;;;;;6082903;22;46844;-65
2023/10/13 01:09:13;;;;;;;4.90;2.42;;;20.40;99.90;;;;;;6067798;22;45078;-65
2023/10/13 01:12:00;;;;;;;6.97;2.78;;;20.40;99.90;;;;;;6087345;22;45207;-65
2023/10/13 01:15:11;;;;;;;4.03;2.70;;;20.40;99.90;;;;;;6078480;22;45367;-65
2023/10/13 01:17:37;;;;;;;6.45;2.47;;;20.40;99.90;;;;;;6069917;22;45635;-65
2023/10/13 01:24:07;;;;;;;3.72;2.30;;;20.40;99.90;;;;;;6059638;22;45154;-65
2023/10/13 01:26:51;;;;;;;4.40;2.67;;;20.40;99.90;;;;;;6096909;22;45216;-65
2023/10/13 01:29:47;;;;;;;4.13;2.22;;;20.40;99.90;;;;;;6046781;22;45378;-65
2023/10/13 01:32:46;;;;;;;5.18;2.25;;;20.40;99.90;;;;;;6076224;22;45207;-66
2023/10/13 01:35:41;;;;;;;2.55;1.88;;;20.40;99.90;;;;;;6079759;22;45432;-65
2023/10/13 01:38:22;;;;;;;5.28;2.75;;;20.40;99.90;;;;;;6064840;22;45393;-66
2023/10/13 01:40:51;;;;;;;5.85;2.58;;;20.40;99.90;;;;;;6083640;22;46509;-66
2023/10/13 01:43:24;;;;;;;5.22;2.05;;;20.40;99.90;;;;;;6050444;22;45279;-66
2023/10/13 01:52:20;;;;;;;3.33;2.05;;;20.40;99.90;;;;;;6045512;22;45695;-66
2023/10/13 01:55:20;;;;;;;2.13;1.75;;;20.40;99.90;;;;;;6102925;22;45390;-66
2023/10/13 01:57:48;;;;;;;2.75;2.05;;;20.40;99.90;;;;;;6073813;22;45371;-66
2023/10/13 02:04:21;;;;;;;4.90;2.60;;;20.40;99.90;;;;;;6022127;22;45771;-66
2023/10/13 02:06:47;;;;;;;5.80;2.67;;;20.40;99.90;;;;;;6052641;22;45334;-66
2023/10/13 02:12:44;;;;;;;5.65;2.50;;;20.40;99.90;;;;;;6064071;22;45273;-66
2023/10/13 02:15:26;;;;;;;4.38;1.90;;;20.40;99.90;;;;;;6074159;22;47259;-66
2023/10/13 02:18:14;;;;;;;4.95;2.88;;;20.40;99.90;;;;;;6103121;22;45269;-66
2023/10/13 02:20:45;;;;;;;4.72;2.40;;;20.40;99.90;;;;;;6080794;22;45289;-66
2023/10/13 02:23:32;;;;;;;5.30;2.97;;;20.40;99.90;;;;;;6073383;22;45237;-66
2023/10/13 02:26:31;;;;;;;3.08;2.25;;;20.40;99.90;;;;;;6119392;22;47102;-66
2023/10/13 02:29:07;;;;;;;5.45;2.22;;;20.40;99.90;;;;;;6077293;22;45291;-66
2023/10/13 02:32:18;;;;;;;5.25;2.67;;;20.40;99.90;;;;;;6077410;22;45346;-66
2023/10/13 02:34:50;;;;;;;5.40;2.70;;;20.40;99.90;;;;;;6066019;22;45173;-66
2023/10/13 02:37:54;;;;;;;4.75;2.70;;;20.40;99.90;;;;;;6105033;22;46483;-66
2023/10/13 02:40:47;;;;;;;4.10;2.38;;;20.40;99.90;;;;;;6082869;22;45594;-66
2023/10/13 02:43:33;;;;;;;5.15;2.40;;;20.40;99.90;;;;;;6088906;22;45314;-66
2023/10/13 02:46:01;;;;;;;5.40;2.50;;;20.40;99.90;;;;;;6100427;22;45158;-66
2023/10/13 02:49:02;;;;;;;3.38;1.70;;;20.40;99.90;;;;;;6059267;22;46527;-66
2023/10/13 02:51:33;;;;;;;3.60;2.30;;;20.40;99.90;;;;;;6086981;22;45361;-66
2023/10/13 02:54:46;;;;;;;2.63;1.73;;;20.40;99.90;;;;;;6062026;22;45287;-66
2023/10/13 02:57:34;;;;;;;6.57;3.25;;;20.40;99.90;;;;;;6098009;22;45295;-66
2023/10/13 03:00:15;;;;;;;4.53;2.50;;;20.30;99.90;;;;;;6097186;22;47483;-66
2023/10/13 03:02:44;;;;;;;4.38;2.50;;;20.30;99.90;;;;;;6100201;22;45250;-66
2023/10/13 03:05:13;;;;;;;2.88;2.40;;;20.40;99.90;;;;;;6092527;22;45198;-65
2023/10/13 03:07:42;;;;;;;4.95;3.03;;;20.40;99.90;;;;;;6068884;22;45360;-66
2023/10/13 03:10:28;;;;;;;5.65;2.40;;;20.30;99.90;;;;;;6051663;22;46499;-65
2023/10/13 03:13:08;;;;;;;3.08;2.05;;;20.30;99.90;;;;;;6096677;22;45291;-66
2023/10/13 03:16:04;;;;;;;4.30;2.60;;;20.40;99.90;;;;;;6087556;22;45136;-65
2023/10/13 03:18:55;;;;;;;3.67;2.45;;;20.40;99.90;;;;;;6086363;22;45370;-65
2023/10/13 03:21:36;;;;;;;7.07;2.67;;;20.40;99.90;;;;;;6087947;22;45744;-65
2023/10/13 03:24:45;;;;;;;7.18;2.30;;;20.40;99.90;;;;;;6097890;22;45004;-65
2023/10/13 03:27:39;;;;;;;3.28;2.33;;;20.40;99.90;;;;;;6077724;22;45282;-66
2023/10/13 03:30:34;;;;;;;4.70;2.75;;;20.30;99.90;;;;;;6079988;22;45076;-65
2023/10/13 03:35:54;;;;;;;6.22;2.72;;;20.30;99.90;;;;;;6069629;22;45341;-65
2023/10/13 03:38:27;;;;;;;3.88;2.10;;;20.30;99.90;;;;;;6079288;22;45229;-65
2023/10/13 03:44:38;;;;;;;6.55;2.05;;;20.30;99.90;;;;;;6035337;22;45919;-66
2023/10/13 03:47:26;;;;;;;2.75;1.67;;;20.30;99.90;;;;;;6072237;22;45916;-65
2023/10/13 03:50:15;;;;;;;5.38;2.58;;;20.40;99.90;;;;;;6083297;22;45247;-66
2023/10/13 03:56:40;;;;;;;5.03;2.28;;;20.30;99.90;;;;;;6040928;22;45714;-66
2023/10/13 03:59:10;;;;;;;3.95;2.80;;;20.20;99.90;;;;;;6087494;22;45230;-66
2023/10/13 04:04:48;;;;;;;3.08;2.03;;;20.30;99.90;;;;;;6123877;22;45335;-66
2023/10/13 04:16:36;;;;;;;3.53;2.30;;;20.30;99.90;;;;;;6094542;22;45428;-63
2023/10/13 04:19:23;;;;;;;3.95;2.10;;;20.30;99.90;;;;;;6086106;22;45409;-68
2023/10/13 04:21:59;;;;;;;3.22;2.17;;;20.30;99.90;;;;;;6069720;22;45216;-70
2023/10/13 04:25:05;;;;;;;5.45;3.17;;;20.30;99.90;;;;;;6089071;22;45332;-70
2023/10/13 04:27:54;;;;;;;2.88;1.92;;;20.40;99.90;;;;;;6086555;22;45179;-69
2023/10/13 04:30:58;;;;;;;4.63;2.72;;;20.30;99.90;;;;;;6099945;22;46207;-69
2023/10/13 04:34:28;;;;;;;7.90;2.80;;;20.30;99.90;;;;;;6060627;22;45198;-68
2023/10/13 04:43:27;;;;;;;4.57;2.30;;;20.30;99.90;;;;;;6077776;22;45531;-68
2023/10/13 04:49:00;;;;;;;10.25;3.75;;;20.30;99.90;;;;;;6051049;22;45267;-68
2023/10/13 04:52:38;;;;;;;5.55;3.58;;;20.40;99.90;;;;;;6078135;22;45359;-68
2023/10/13 04:58:45;;;;;;;5.43;3.40;;;20.30;99.90;;;;;;6094167;22;45238;-68
2023/10/13 05:04:22;;;;;;;9.25;4.05;;;20.10;99.90;;;;;;6056592;22;45271;-68
2023/10/13 05:49:40;;;;;;;6.72;2.65;;;20.00;99.90;;;;;;6064365;22;45148;-72
2023/10/13 05:52:19;;;;;;;7.97;3.03;;;19.80;99.90;;;;;;6093434;22;45409;-67
2023/10/13 06:29:19;;;;;;;3.85;1.83;;;20.10;99.90;;;;;;6060771;22;45304;-68
2023/10/13 06:35:05;;;;;;;8.80;2.35;;;20.10;99.90;;;;;;6072426;22;45193;-68
2023/10/13 06:38:20;;;;;;;4.40;1.85;;;20.00;99.90;;;;;;6066645;22;45272;-68
2023/10/13 06:41:40;;;;;;;5.85;2.28;;;20.00;99.90;;;;;;6070612;22;45179;-67
2023/10/13 06:46:49;;;;;;;5.90;2.17;;;20.00;99.90;;;;;;6075530;22;45165;-68
2023/10/13 06:49:23;;;;;;;4.05;1.92;;;20.00;99.90;;;;;;6075797;22;45393;-67
2023/10/13 06:51:51;;;;;;;5.07;2.15;;;20.10;99.90;;;;;;6079429;22;45404;-66
2023/10/13 06:54:53;;;;;;;4.78;2.20;;;20.20;99.90;;;;;;6066404;22;45324;-65
2023/10/13 06:57:33;;;;;;;7.55;2.47;;;20.20;99.90;;;;;;6077253;22;45301;-65
2023/10/13 07:00:07;;;;;;;12.07;2.67;;;20.10;99.90;;;;;;6068608;22;45184;-65
2023/10/13 07:03:06;;;;;;;5.22;2.40;;;20.00;99.90;;;;;;6070969;22;45379;-65
2023/10/13 07:05:41;;;;;;;8.50;2.40;;;20.00;99.90;;;;;;6085954;22;46541;-66
2023/10/13 07:11:17;;;;;;;6.32;2.10;;;20.10;99.90;;;;;;6055686;22;45243;-65
2023/10/13 07:14:20;;;;;;;5.10;2.30;;;20.10;99.90;;;;;;6075683;22;45315;-65
2023/10/13 07:20:43;;;;;;;6.47;3.35;;;19.90;99.90;;;;;;6056189;22;45171;-66
2023/10/13 07:23:29;;;;;;;8.00;3.38;;;19.80;99.90;;;;;;6079922;22;45259;-65
2023/10/13 07:26:08;;;;;;;6.32;2.58;;;19.90;99.90;;;;;;6095530;22;45177;-65
2023/10/13 07:29:08;;;;;;;9.20;3.53;;;19.80;99.90;;;;;;6079861;22;45430;-65
2023/10/13 07:31:52;;;;;;;7.28;3.28;;;19.90;99.90;;;;;;6077445;22;45109;-70
2023/10/13 07:34:49;;;;;;;4.93;2.70;;;19.80;99.90;;;;;;6078807;22;45327;-70
2023/10/13 07:37:52;;;;;;;5.10;2.45;;;19.80;99.90;;;;;;6083836;22;45141;-69
2023/10/13 07:41:09;;;;;;;9.48;3.78;;;19.90;99.90;;;;;;6069490;22;46406;-68
2023/10/13 07:44:07;;;;;;;11.95;4.75;;;19.90;99.90;;;;;;6072318;22;45133;-68
2023/10/13 07:46:46;;;;;;;13.55;4.65;;;19.80;99.90;;;;;;6077737;22;45270;-68
2023/10/13 07:49:13;;;;;;;7.45;4.32;;;19.80;99.90;;;;;;6069809;22;45168;-67
2023/10/13 07:51:44;;;;;;;8.95;4.00;;;19.80;99.90;;;;;;6071818;22;46337;-67
2023/10/13 07:54:39;;;;;;;12.73;4.65;;;19.80;99.90;;;;;;6117070;22;45272;-67
2023/10/13 08:00:54;;;;;;;8.07;3.40;;;19.90;99.90;;;;;;6057646;22;45287;-67
2023/10/13 08:04:14;;;;;;;4.38;1.85;;;19.90;99.90;;;;;;6083632;22;45997;-67
2023/10/13 08:06:43;;;;;;;6.43;3.25;;;20.00;99.90;;;;;;6066613;22;45101;-67
2023/10/13 08:09:28;;;;;;;11.70;3.92;;;20.00;99.90;;;;;;6075663;22;45273;-67
2023/10/13 08:12:28;;;;;;;13.68;3.95;;;20.00;99.90;;;;;;6057204;22;45248;-65
2023/10/13 08:21:15;;;;;;;17.60;3.47;;;20.00;99.90;;;;;;6037902;22;45379;-66
2023/10/13 08:24:15;;;;;;;11.95;4.03;;;19.80;99.90;;;;;;6056285;22;45495;-65
2023/10/13 08:32:58;;;;;;;5.90;2.30;;;19.80;99.90;;;;;;6102401;22;45212;-66
2023/10/13 08:36:17;;;;;;;9.77;2.38;;;19.90;99.90;;;;;;6069987;22;45288;-66
2023/10/13 08:41:53;;;;;;;10.23;3.95;;;20.00;99.90;;;;;;6063979;22;45390;-66
2023/10/13 08:44:37;;;;;;;5.22;2.60;;;20.00;99.90;;;;;;6069589;22;45138;-66
2023/10/13 08:47:36;;;;;;;10.93;3.78;;;20.00;99.90;;;;;;6128751;22;45217;-66
2023/10/13 08:50:31;;;;;;;7.47;3.50;;;20.10;99.90;;;;;;6096193;22;46393;-66
2023/10/13 08:53:31;;;;;;;12.43;4.43;;;20.10;99.90;;;;;;6068165;22;45206;-66
2023/10/13 08:56:47;;;;;;;5.82;3.03;;;20.10;99.90;;;;;;6068574;22;45370;-66
2023/10/13 08:59:38;;;;;;;7.25;2.30;;;20.10;99.90;;;;;;6067470;22;45319;-66
2023/10/13 09:08:08;;;;;;;4.22;1.60;;;20.60;99.90;;;;;;6053453;22;45210;-66
2023/10/13 09:11:12;;;;;;;15.55;3.47;;;20.90;99.90;;;;;;6076844;22;45221;-68
2023/10/13 09:27:37;;;;;;;13.27;3.40;;;20.80;99.90;;;;;;6004101;22;1248366;-65
2023/10/13 09:30:18;;;;;;;8.77;3.90;;;20.70;99.90;;;;;;5989466;22;45827;-65
2023/10/13 09:33:20;;;;;;;5.25;3.00;;;20.70;99.90;;;;;;6009734;22;45271;-65
2023/10/13 09:35:49;;;;;;;8.05;3.70;;;20.60;99.90;;;;;;6009044;22;45318;-65
2023/10/13 09:38:21;;;;;;;7.55;3.10;;;20.60;99.90;;;;;;5976201;22;46609;-65
2023/10/13 09:44:08;;;;;;;10.10;3.22;;;20.60;99.90;;;;;;5978141;22;45432;-65
2023/10/13 09:47:17;;;;;;;9.20;4.30;;;20.60;99.90;;;;;;6021716;22;45174;-65
2023/10/13 09:49:58;;;;;;;6.50;2.95;;;20.50;99.90;;;;;;5999614;22;46453;-66
2023/10/13 09:55:55;;;;;;;5.78;3.22;;;20.50;99.90;;;;;;5992530;22;45231;-66
2023/10/13 09:58:54;;;;;;;8.25;4.00;;;20.50;99.90;;;;;;5994528;22;45371;-65
2023/10/13 10:01:39;;;;;;;7.18;4.43;;;20.50;99.90;;;;;;6005287;22;47881;-65
2023/10/13 10:04:14;;;;;;;13.05;5.13;;;20.50;99.90;;;;;;6005898;22;45122;-65
2023/10/13 10:07:06;;;;;;;4.78;2.53;;;20.60;99.90;;;;;;5998819;22;45089;-70
2023/10/13 10:10:08;;;;;;;11.38;3.13;;;20.70;99.90;;;;;;5984344;22;45407;-62
2023/10/13 10:25:35;;;;;;;8.93;2.90;;;21.10;99.90;;;;;;5993480;22;46770;-67
2023/10/13 10:28:06;;;;;;;9.15;4.20;;;21.10;99.90;;;;;;5955360;23;45162;-67
2023/10/13 10:31:05;;;;;;;15.45;4.28;;;21.30;99.90;;;;;;5924698;23;45268;-64
2023/10/13 10:33:35;;;;;;;8.95;4.60;;;21.10;99.90;;;;;;5949837;23;45286;-68
2023/10/13 10:47:01;;;;;;;5.82;3.58;;;20.80;99.90;;;;;;6116576;23;45176;-68
2023/10/13 10:49:52;;;;;;;13.27;5.07;;;20.80;99.90;;;;;;6063974;23;45053;-68
2023/10/13 10:52:57;;;;;;;14.50;4.47;;;20.80;99.90;;;;;;6003912;22;45036;-68
2023/10/13 10:55:30;;;;;;;8.32;3.72;;;20.90;99.90;;;;;;5942346;22;45310;-67
2023/10/13 10:58:43;;;;;;;14.07;5.03;;;20.90;99.90;;;;;;5961685;23;47221;-67
2023/10/13 11:01:11;;;;;;;7.82;3.92;;;20.90;99.90;;;;;;5945903;23;45188;-67
2023/10/13 11:07:31;;;;;;;13.38;4.82;;;20.90;99.90;;;;;;5920290;23;45103;-67
2023/10/13 11:10:26;;;;;;;11.60;4.82;;;20.90;99.90;;;;;;5945936;23;45600;-64
2023/10/13 11:16:34;;;;;;;14.40;4.65;;;21.40;99.90;;;;;;5927350;22;45280;-58
2023/10/13 11:22:33;;;;;;;8.95;4.38;;;21.00;99.90;;;;;;5936043;23;45675;-60
2023/10/13 11:25:34;;;;;;;18.02;5.05;;;20.90;99.90;;;;;;5885124;23;45227;-61
2023/10/13 11:28:34;;;;;;;10.02;4.70;;;20.80;99.90;;;;;;5863196;23;45309;-61
2023/10/13 11:31:19;;;;;;;11.02;4.00;;;20.80;99.90;;;;;;5883843;23;45390;-62
2023/10/13 11:34:02;;;;;;;8.82;4.60;;;20.70;99.90;;;;;;5891480;23;45875;-62
2023/10/13 11:36:39;;;;;;;11.13;4.82;;;20.70;99.90;;;;;;5893311;23;45242;-62
2023/10/13 11:39:32;;;;;;;14.32;5.00;;;20.70;99.90;;;;;;5874036;23;45564;-62
2023/10/13 11:42:47;;;;;;;14.00;5.25;;;20.70;99.90;;;;;;5871349;23;45241;-62
2023/10/13 11:48:01;;;;;;;15.85;4.07;;;20.70;99.90;;;;;;5878305;23;45014;-62
2023/10/13 11:53:34;;;;;;;12.63;4.13;;;20.80;99.90;;;;;;5913834;23;45480;-62
2023/10/13 11:56:20;;;;;;;20.15;4.60;;;20.70;99.90;;;;;;5873601;23;47239;-61
2023/10/13 11:59:20;;;;;;;13.85;4.18;;;20.70;99.90;;;;;;5878020;23;45291;-62
2023/10/13 12:05:11;;;;;;;17.13;3.65;;;20.70;99.90;;;;;;5891306;23;45346;-61
2023/10/13 12:08:03;;;;;;;12.95;4.25;;;20.70;99.90;;;;;;5877106;23;47249;-61
2023/10/13 12:10:49;;;;;;;16.80;4.53;;;20.70;99.90;;;;;;5885815;23;45410;-61
2023/10/13 12:13:50;;;;;;;17.83;4.05;;;20.70;99.90;;;;;;5889330;23;45303;-61
2023/10/13 12:16:34;;;;;;;11.77;4.22;;;20.70;99.90;;;;;;5881181;23;45113;-61
2023/10/13 12:19:34;;;;;;;16.77;4.18;;;20.70;99.90;;;;;;5892146;23;45290;-61
2023/10/13 12:22:05;;;;;;;18.15;4.20;;;20.70;99.90;;;;;;5882649;23;45381;-61
2023/10/13 12:49:38;;;;;;;11.43;4.43;;;20.90;99.90;;;;;;5894471;23;45409;-62
2023/10/13 12:52:36;;;;;;;12.10;4.10;;;20.80;99.90;;;;;;5899741;23;45214;-62
2023/10/13 12:55:33;;;;;;;15.40;4.25;;;20.80;99.90;;;;;;5939213;23;45074;-62
2023/10/13 12:58:04;;;;;;;18.45;4.63;;;20.90;99.90;;;;;;5876547;23;45345;-62
2023/10/13 13:01:06;;;;;;;12.45;4.25;;;20.90;99.90;;;;;;5915692;23;48114;-62
2023/10/13 13:04:04;;;;;;;19.58;4.57;;;20.80;99.90;;;;;;5900475;23;45580;-62
2023/10/13 13:06:56;;;;;;;16.77;3.85;;;20.70;99.90;;;;;;5893271;23;45253;-62
2023/10/13 13:09:37;;;;;;;19.33;4.22;;;20.80;99.90;;;;;;5911235;23;44800;-62
2023/10/13 13:12:35;;;;;;;18.33;4.50;;;20.80;99.90;;;;;;5911552;23;46548;-62
2023/10/13 13:15:23;;;;;;;16.83;3.85;;;20.90;99.90;;;;;;5883792;23;45261;-62
2023/10/13 13:17:55;;;;;;;18.30;4.07;;;20.90;99.90;;;;;;5876105;23;45433;-62
2023/10/13 13:21:30;;;;;;;13.13;4.15;;;20.80;99.90;;;;;;5914363;23;45283;-62
2023/10/13 13:23:57;;;;;;;16.50;4.15;;;20.80;99.90;;;;;;5877071;23;46208;-62
2023/10/13 13:26:24;;;;;;;16.20;4.25;;;20.80;99.90;;;;;;5929298;23;45490;-62
2023/10/13 13:29:37;;;;;;;20.38;3.72;;;20.80;99.90;;;;;;5883425;23;45319;-62
2023/10/13 13:32:17;;;;;;;7.53;3.58;;;20.90;99.90;;;;;;5892022;23;45565;-62
2023/10/13 13:34:45;;;;;;;14.35;4.13;;;20.90;99.90;;;;;;5918504;23;45237;-62
2023/10/13 13:41:09;;;;;;;12.15;3.78;;;20.80;99.90;;;;;;5890755;23;44889;-62
2023/10/13 13:46:42;;;;;;;20.05;4.30;;;20.90;99.90;;;;;;5883476;23;46323;-62
2023/10/13 13:52:45;;;;;;;21.70;4.25;;;20.80;99.90;;;;;;5875283;23;45181;-62
2023/10/13 13:55:17;;;;;;;16.27;3.92;;;20.80;99.90;;;;;;5890172;23;45394;-62
2023/10/13 13:57:44;;;;;;;20.30;4.53;;;20.80;99.90;;;;;;5928549;23;46536;-62
2023/10/13 14:03:30;;;;;;;12.77;3.80;;;20.80;99.90;;;;;;5895549;23;45224;-62
2023/10/13 14:06:29;;;;;;;19.95;3.95;;;20.80;99.90;;;;;;5878907;23;45454;-62
2023/10/13 14:09:16;;;;;;;16.08;4.05;;;20.70;99.90;;;;;;5921635;23;47180;-62
2023/10/13 14:12:41;;;;;;;14.15;3.70;;;20.70;99.90;;;;;;5910158;23;45389;-62
2023/10/13 14:15:23;;;;;;;9.93;3.40;;;20.70;99.90;;;;;;5874001;23;45247;-62
2023/10/13 14:18:05;;;;;;;17.05;3.97;;;20.70;99.90;;;;;;5894370;23;45181;-62
2023/10/13 14:21:03;;;;;;;16.52;4.25;;;20.70;99.90;;;;;;5909942;23;46527;-62
2023/10/13 14:23:47;;;;;;;19.15;4.10;;;20.80;99.90;;;;;;5854256;23;45291;-61
2023/10/13 14:26:19;;;;;;;15.98;5.07;;;20.80;99.90;;;;;;5865975;23;45343;-61
2023/10/13 14:29:18;;;;;;;9.95;3.15;;;20.80;99.90;;;;;;5923781;23;45193;-61
2023/10/13 14:32:12;;;;;;;14.82;4.13;;;20.80;99.90;;;;;;5862022;23;47115;-59
2023/10/13 14:35:00;;;;;;;18.60;4.05;;;20.70;99.90;;;;;;5891642;23;45101;-60
2023/10/13 14:37:29;;;;;;;11.02;3.85;;;20.80;98.30;;;;;;5884671;23;45158;-61
2023/10/13 14:40:12;;;;;;;9.85;3.65;;;20.80;98.70;;;;;;5892728;23;45347;-61
2023/10/13 14:42:56;;;;;;;12.73;3.97;;;20.80;99.00;;;;;;5875260;23;47336;-61
2023/10/13 14:45:49;;;;;;;12.65;3.75;;;20.70;99.90;;;;;;5898361;23;45334;-61
2023/10/13 14:48:16;;;;;;;13.93;4.28;;;20.70;99.90;;;;;;5890255;23;45138;-61
2023/10/13 14:50:54;;;;;;;10.40;3.85;;;20.70;99.90;;;;;;5897421;23;45329;-61
2023/10/13 14:53:55;;;;;;;11.25;3.72;;;20.70;99.90;;;;;;5918853;23;46437;-61
2023/10/13 14:56:25;;;;;;;16.75;3.65;;;20.60;99.80;;;;;;5888559;23;45099;-61
2023/10/13 14:58:54;;;;;;;15.00;4.15;;;20.70;98.30;;;;;;5904034;23;45084;-61
2023/10/13 15:01:46;;;;;;;15.27;4.00;;;20.70;99.90;;;;;;5931298;23;45122;-61
2023/10/13 15:04:13;;;;;;;10.25;3.75;;;20.70;99.30;;;;;;5897196;23;47264;-61
2023/10/13 15:06:53;;;;;;;9.38;4.28;;;20.70;99.90;;;;;;5895822;23;45160;-61
2023/10/13 15:09:45;;;;;;;11.68;3.95;;;20.60;99.90;;;;;;5882977;23;45348;-61
2023/10/13 15:12:46;;;;;;;13.98;4.22;;;20.60;99.90;;;;;;5903118;23;45536;-61
2023/10/13 15:15:35;;;;;;;20.35;4.90;;;20.60;98.90;;;;;;5867711;23;46268;-61
2023/10/13 15:18:13;;;;;;;16.70;5.07;;;20.60;99.90;;;;;;5877873;23;45287;-61
2023/10/13 15:21:08;;;;;;;15.98;4.55;;;20.60;99.90;;;;;;5870470;23;45180;-59
2023/10/13 15:23:42;;;;;;;13.93;4.07;;;20.60;99.90;;;;;;5877156;23;45230;-59
2023/10/13 15:26:48;;;;;;;14.93;3.58;;;20.60;99.40;;;;;;5893961;23;45292;-59
2023/10/13 15:29:17;;;;;;;11.38;3.92;;;20.70;97.30;;;;;;5871594;23;45302;-58
2023/10/13 15:32:41;;;;;;;18.23;4.38;;;20.70;96.70;;;;;;5860304;23;45188;-58
2023/10/13 15:35:30;;;;;;;11.07;3.03;;;20.70;99.90;;;;;;5912452;23;45560;-58
2023/10/13 15:37:57;;;;;;;13.20;3.90;;;20.60;97.70;;;;;;5874705;23;45764;-59
2023/10/13 15:40:27;;;;;;;12.48;4.20;;;20.60;99.90;;;;;;5885274;23;45278;-59
2023/10/13 15:43:19;;;;;;;9.80;3.83;;;20.60;98.40;;;;;;5875402;23;45341;-58
2023/10/13 15:46:04;;;;;;;15.38;3.42;;;20.70;99.90;;;;;;5926411;23;45323;-58
2023/10/13 15:48:37;;;;;;;13.70;4.20;;;20.70;97.70;;;;;;5860929;23;46439;-58
2023/10/13 15:51:38;;;;;;;6.45;2.78;;;20.60;97.40;;;;;;5881851;23;45254;-58
2023/10/13 15:54:10;;;;;;;12.30;3.75;;;20.70;99.90;;;;;;5894233;23;45566;-60
2023/10/13 15:57:37;;;;;;;13.95;3.83;;;20.60;98.90;;;;;;5869618;23;45113;-60
2023/10/13 16:00:26;;;;;;;16.98;4.18;;;20.70;99.40;;;;;;5891611;23;46190;-61
2023/10/13 16:03:15;;;;;;;8.32;3.75;;;20.60;99.50;;;;;;5905638;23;45656;-61
2023/10/13 16:12:50;;;;;;;10.18;3.67;;;20.60;99.90;;;;;;5860012;23;45430;-57
2023/10/13 16:15:18;;;;;;;14.27;4.35;;;20.60;97.30;;;;;;5879319;23;45445;-59
2023/10/13 16:17:53;;;;;;;13.77;3.55;;;20.60;95.30;;;;;;5880389;23;45041;-59
2023/10/13 16:20:37;;;;;;;18.90;4.05;;;20.60;96.20;;;;;;5880110;23;45256;-58
2023/10/13 16:23:35;;;;;;;12.68;4.78;;;20.60;95.80;;;;;;5918631;23;45502;-57
2023/10/13 16:26:07;;;;;;;12.77;3.70;;;20.60;96.00;;;;;;5871046;23;45143;-57
2023/10/13 16:28:44;;;;;;;8.75;3.45;;;20.60;95.70;;;;;;5843432;23;45280;-58
2023/10/13 16:31:46;;;;;;;8.18;3.60;;;20.60;94.30;;;;;;5865534;23;44893;-58
2023/10/13 16:34:29;;;;;;;15.55;3.88;;;20.60;95.20;;;;;;5871184;23;46283;-59
2023/10/13 16:36:56;;;;;;;8.73;3.33;;;20.60;95.20;;;;;;5890246;23;45241;-59
2023/10/13 16:39:25;;;;;;;12.60;3.60;;;20.70;94.00;;;;;;5874154;23;45300;-59
2023/10/13 16:41:52;;;;;;;10.85;3.35;;;20.60;94.30;;;;;;5890010;23;45277;-59
2023/10/13 16:44:31;;;;;;;15.85;3.70;;;20.70;95.10;;;;;;5871797;23;46548;-59
2023/10/13 16:47:30;;;;;;;8.57;3.33;;;20.60;94.90;;;;;;5900033;23;45428;-59
2023/10/13 16:49:58;;;;;;;8.80;3.60;;;20.70;94.30;;;;;;5890340;23;45038;-60
2023/10/13 16:52:27;;;;;;;10.50;3.30;;;20.70;96.60;;;;;;5888671;23;45106;-60
2023/10/13 16:54:54;;;;;;;6.85;3.15;;;20.60;95.40;;;;;;5878043;23;45875;-60
2023/10/13 16:57:26;;;;;;;13.32;3.42;;;20.60;94.50;;;;;;5865408;23;45124;-60
2023/10/13 17:03:34;;;;;;;9.90;3.47;;;20.60;95.80;;;;;;5782996;23;45450;-57
2023/10/13 17:09:37;;;;;;;14.98;4.20;;;20.60;98.00;;;;;;5836569;23;45249;-57
2023/10/13 17:12:10;;;;;;;15.68;3.90;;;20.60;97.40;;;;;;5870818;23;45177;-59
2023/10/13 17:14:40;;;;;;;18.20;3.30;;;20.60;97.50;;;;;;5867641;23;45279;-59
2023/10/13 17:17:20;;;;;;;9.90;3.17;;;20.60;98.50;;;;;;5886936;23;47167;-59
2023/10/13 17:19:49;;;;;;;10.85;4.05;;;20.60;97.60;;;;;;5878735;23;45366;-59
2023/10/13 17:22:40;;;;;;;8.55;3.22;;;20.60;95.50;;;;;;5889300;23;45163;-60
2023/10/13 17:25:12;;;;;;;10.55;3.67;;;20.60;98.60;;;;;;5863811;23;45363;-60
2023/10/13 17:27:48;;;;;;;6.60;2.90;;;20.60;98.00;;;;;;5882135;23;46561;-59
2023/10/13 17:30:15;;;;;;;8.63;3.40;;;20.60;97.80;;;;;;5880028;23;45357;-60
2023/10/13 17:33:11;;;;;;;8.18;2.92;;;20.60;99.80;;;;;;5887637;23;45368;-60
2023/10/13 17:35:49;;;;;;;10.57;3.70;;;20.50;99.70;;;;;;5900524;23;45296;-60
2023/10/13 17:38:54;;;;;;;12.65;2.90;;;20.60;99.90;;;;;;5893493;23;46956;-60
2023/10/13 17:41:34;;;;;;;8.95;3.40;;;20.50;99.90;;;;;;5894041;23;45252;-60
2023/10/13 17:44:02;;;;;;;7.15;3.28;;;20.50;99.00;;;;;;5880443;23;44861;-60
2023/10/13 17:46:37;;;;;;;9.80;3.00;;;20.50;99.90;;;;;;5895548;23;45439;-60
2023/10/13 17:49:07;;;;;;;9.73;3.33;;;20.50;99.90;;;;;;5906771;23;47320;-60
2023/10/13 17:51:45;;;;;;;13.18;3.72;;;20.40;99.70;;;;;;5903752;23;45252;-60
2023/10/13 17:54:32;;;;;;;11.95;3.72;;;20.50;99.90;;;;;;5887502;23;45429;-60
2023/10/13 17:57:22;;;;;;;12.55;3.38;;;20.50;98.50;;;;;;5905205;23;45246;-60
2023/10/13 17:59:48;;;;;;;9.45;3.50;;;20.50;99.90;;;;;;5905275;23;46297;-60
2023/10/13 18:02:16;;;;;;;9.55;3.20;;;20.40;99.80;;;;;;5887373;23;45701;-60
2023/10/13 18:05:18;;;;;;;11.32;3.13;;;20.40;99.90;;;;;;5880024;23;45380;-60
2023/10/13 18:08:13;;;;;;;12.43;4.22;;;20.40;99.90;;;;;;5888001;23;45153;-60
2023/10/13 18:10:59;;;;;;;20.80;3.22;;;20.40;99.10;;;;;;5898927;23;46491;-60
2023/10/13 18:13:41;;;;;;;13.68;3.40;;;20.40;99.10;;;;;;5900887;23;45712;-60
2023/10/13 18:19:15;;;;;;;17.58;4.00;;;20.50;97.20;;;;;;5854363;23;45384;-59
2023/10/13 18:22:06;;;;;;;12.18;4.30;;;20.50;97.50;;;;;;5924088;23;47403;-59
2023/10/13 18:24:35;;;;;;;16.15;3.55;;;20.50;97.50;;;;;;5890915;23;45129;-60
2023/10/13 18:27:07;;;;;;;8.27;2.58;;;20.50;99.90;;;;;;5902511;23;45387;-59
2023/10/13 18:29:37;;;;;;;13.98;3.53;;;20.50;99.90;;;;;;5878009;23;45447;-60
2023/10/13 18:32:04;;;;;;;12.27;3.67;;;20.50;97.90;;;;;;5902030;23;46791;-60
2023/10/13 18:34:59;;;;;;;19.40;3.60;;;20.50;99.10;;;;;;5882848;23;45298;-60
2023/10/13 18:37:26;;;;;;;11.00;3.17;;;20.50;98.10;;;;;;5878074;23;45188;-60
2023/10/13 18:40:24;;;;;;;8.23;3.42;;;20.50;99.90;;;;;;5914772;23;45264;-60
2023/10/13 18:42:51;;;;;;;14.25;3.53;;;20.50;99.90;;;;;;5895262;23;46137;-59
2023/10/13 18:45:36;;;;;;;7.93;3.08;;;20.50;99.20;;;;;;5887634;23;45296;-59
2023/10/13 18:48:04;;;;;;;11.85;3.50;;;20.50;99.90;;;;;;5883297;23;45306;-59
2023/10/13 18:50:56;;;;;;;11.18;4.57;;;20.40;99.90;;;;;;5890448;23;45340;-60
2023/10/13 18:54:02;;;;;;;10.90;3.20;;;20.40;99.90;;;;;;5903358;23;46293;-59
2023/10/13 18:56:51;;;;;;;9.07;3.83;;;20.40;99.90;;;;;;5873466;23;45329;-59
2023/10/13 18:59:36;;;;;;;8.88;3.10;;;20.40;99.90;;;;;;5877300;23;44826;-60
2023/10/13 19:02:07;;;;;;;14.10;4.03;;;20.40;99.90;;;;;;5878430;23;45124;-60
2023/10/13 19:05:09;;;;;;;16.85;3.95;;;20.40;99.90;;;;;;5892589;23;47468;-60
2023/10/13 19:07:57;;;;;;;14.43;3.60;;;20.30;99.90;;;;;;5875888;23;45290;-58
2023/10/13 19:10:46;;;;;;;11.77;3.53;;;20.30;99.90;;;;;;5879220;23;45289;-58
2023/10/13 19:13:32;;;;;;;11.32;3.85;;;20.40;99.90;;;;;;5881847;23;45169;-58